Cramlington, United Kingdom
Current Conditions -  °F | °C
As of 3:20 AM on Tuesday 21 Oct 2014 (Local Time) from EGNT Reporting Station
Light Rain Light Rain  
Wind Chill: 54°   Ceiling: 4300
Heat Index: 54°   Visibility: 6mi
Dew Point: 50°   Wind: 14mph
Humidity: 88%   Direction: 200°SSW
Pressure: 29.29"   Gusts: NA
Location:  55.09°N, 1.59°W
Report Text: EGNT 210220Z 20012KT 170V270 9999 -RA SCT025 BKN043 12/10 Q0992
Loading
Personal Weather Stations






























Interactive Weather Map
Tropical Storm Tracking
New forecast layout! Learn more

10-Day Weather Forecast

Advertisements
Track Severe Weather on mobile